Stevensville, MI (49127)

10:37 AM EST on December 06, 2016 (GMT -0500)
Stevensville, MI | | Change Station

Elev 633 ft 42.01 °N, 86.52 °W | Updated 0 second ago

Haze
Haze
35.2 °F
Feels Like 35 °F
N
0.7
Wind Variable Wind from SE
Gusts 0.7 mph

Today
High -- | Low -- °F
--% Chance of Precip.
Yesterday
High -- | Low -- °F
Precip. -- in
Pressure 29.79 in
Visibility 4.0 miles
Clouds Clear
Windchill 35 °F
Dew Point 31 °F
Humidity 86%
Rainfall 0.00 in
Snow Depth Not available.
8:00 AM 5:14 PM
Waxing Crescent, 42% visible
METAR KBEH 061453Z AUTO 00000KT 4SM HZ CLR 01/M02 A2977 RMK AO2 SLP087 T00111022 55015
Pressure 29.79 in
Visibility 4.0 miles
Clouds Clear
Windchill 35 °F
Dew Point 31 °F
Humidity 86%
Rainfall 0.00 in
Snow Depth Not available.
8:00 AM 5:14 PM
Waxing Crescent, 42% visible
METAR KBEH 061453Z AUTO 00000KT 4SM HZ CLR 01/M02 A2977 RMK AO2 SLP087 T00111022 55015

10-Day Weather Forecast

Almanac

Astronomy

Dec. 06, 2016 Rise Set
Actual Time
Civil Twilight
Nautical Twilight
Astronomical Twilight
Moon
Length of Visible Light
Length of Day
Tomorrow will be .
, % of the Moon is Illuminated

Today's Extremes

State Highs State Lows

Community

WunderPhotos

Upload Photos

1,955,957 photos uploaded!

WunderBlog® & News

Nearby

Air Quality

  Air Quality AQ Index Pollutant
Not available.

Snow Depth

Station Depth Elevation

Earthquake Activity

City Distance Mag. Time & Date
Minimum magnitude displayed is 2.5.

Coastal Water Temperatures

Place Temperature

Stations

Nearby Weather Stations

Station Location Temp. Windchill Dew Point Humidity Wind Precip. Elev Updated Type
                   

Watches & Warnings

There are currently no watches in effect.